createdAt,value
2022-11-20T00:00:06.515Z,-2.70
2022-11-20T00:02:14.166Z,-2.70
2022-11-20T00:04:01.563Z,-2.70
2022-11-20T00:05:48.722Z,-2.70
2022-11-20T00:07:35.798Z,-2.70
2022-11-20T00:09:23.349Z,-2.60
2022-11-20T00:11:16.092Z,-2.60
2022-11-20T00:13:04.610Z,-2.60
2022-11-20T00:14:51.883Z,-2.60
2022-11-20T00:16:38.996Z,-2.60
2022-11-20T00:18:26.785Z,-2.50
2022-11-20T00:20:14.259Z,-2.50
2022-11-20T00:22:01.874Z,-2.50
2022-11-20T00:23:49.882Z,-2.50
2022-11-20T00:25:37.158Z,-2.50
2022-11-20T00:27:24.398Z,-2.50
2022-11-20T00:29:11.859Z,-2.50
2022-11-20T00:31:04.143Z,-2.50
2022-11-20T00:32:51.199Z,-2.50
2022-11-20T00:34:38.219Z,-2.50
2022-11-20T00:36:29.384Z,-2.50
2022-11-20T00:38:16.438Z,-2.50
2022-11-20T00:40:03.715Z,-2.50
2022-11-20T00:41:51.269Z,-2.50
2022-11-20T00:43:38.872Z,-2.50
2022-11-20T00:45:25.873Z,-2.50
2022-11-20T00:47:13.171Z,-2.50
2022-11-20T00:49:00.239Z,-2.50
2022-11-20T00:50:47.259Z,-2.60
2022-11-20T00:52:34.525Z,-2.50
2022-11-20T00:54:22.039Z,-2.60
2022-11-20T00:56:12.046Z,-2.60
2022-11-20T00:58:02.414Z,-2.60
2022-11-20T00:59:51.411Z,-2.60
2022-11-20T01:01:38.760Z,-2.70
2022-11-20T01:03:27.248Z,-2.70
2022-11-20T01:05:14.389Z,-2.70
2022-11-20T01:07:01.529Z,-2.70
2022-11-20T01:08:50.589Z,-2.70
2022-11-20T01:10:37.692Z,-2.70
2022-11-20T01:12:24.692Z,-2.70
2022-11-20T01:14:15.757Z,-2.80
2022-11-20T01:16:14.914Z,-2.80
2022-11-20T01:18:01.968Z,-2.80
2022-11-20T01:19:52.244Z,-2.80
2022-11-20T01:21:41.557Z,-2.80
2022-11-20T01:23:32.239Z,-2.80
2022-11-20T01:25:19.609Z,-2.80
2022-11-20T01:27:06.724Z,-2.80
2022-11-20T01:28:54.722Z,-2.80
2022-11-20T01:30:41.958Z,-2.90
2022-11-20T01:32:29.117Z,-2.90
2022-11-20T01:34:19.291Z,-2.90
2022-11-20T01:36:07.965Z,-2.90
2022-11-20T01:37:54.985Z,-2.90
2022-11-20T01:39:41.988Z,-3.00
2022-11-20T01:41:50.706Z,-3.00
2022-11-20T01:43:38.058Z,-3.00
2022-11-20T01:46:01.487Z,-3.10
2022-11-20T01:47:50.330Z,-3.00
2022-11-20T01:49:46.832Z,-3.00
2022-11-20T01:51:40.931Z,-3.00
2022-11-20T01:53:34.367Z,-3.00
2022-11-20T01:55:26.702Z,-3.00
2022-11-20T01:57:14.883Z,-3.00
2022-11-20T01:59:05.000Z,-3.00
2022-11-20T02:00:52.649Z,-3.00
2022-11-20T02:02:43.636Z,-3.00
2022-11-20T02:04:31.104Z,-3.00
2022-11-20T02:06:25.090Z,-3.00
2022-11-20T02:08:12.894Z,-3.00
2022-11-20T02:10:00.219Z,-3.00
2022-11-20T02:11:47.697Z,-3.00
2022-11-20T02:13:44.242Z,-2.90
2022-11-20T02:15:33.265Z,-2.90
2022-11-20T02:17:21.323Z,-2.90
2022-11-20T02:19:18.027Z,-2.90
2022-11-20T02:21:13.994Z,-2.90
2022-11-20T02:23:05.980Z,-2.90
2022-11-20T02:24:53.219Z,-2.90
2022-11-20T02:26:52.396Z,-2.90
2022-11-20T02:28:39.809Z,-2.90
2022-11-20T02:30:26.937Z,-2.90
2022-11-20T02:32:30.000Z,-2.90
2022-11-20T02:34:17.045Z,-2.90
2022-11-20T02:36:04.370Z,-2.90
2022-11-20T02:37:55.870Z,-2.90
2022-11-20T02:39:44.307Z,-2.90
2022-11-20T02:41:38.404Z,-2.90
2022-11-20T02:43:25.759Z,-2.80
2022-11-20T02:45:12.891Z,-2.90
2022-11-20T02:47:00.296Z,-2.90
2022-11-20T02:48:47.633Z,-2.80
2022-11-20T02:50:37.211Z,-2.80
2022-11-20T02:52:24.723Z,-2.80
2022-11-20T02:54:11.969Z,-2.80
2022-11-20T02:55:58.985Z,-2.80
2022-11-20T02:57:46.015Z,-2.80
2022-11-20T02:59:33.287Z,-2.80
2022-11-20T03:01:20.429Z,-2.80
2022-11-20T03:03:07.429Z,-2.80
2022-11-20T03:04:54.981Z,-2.90
2022-11-20T03:06:42.072Z,-2.90
2022-11-20T03:08:29.385Z,-3.00
2022-11-20T03:10:16.736Z,-3.10
2022-11-20T03:12:03.925Z,-3.10
2022-11-20T03:13:50.900Z,-3.20
2022-11-20T03:15:38.682Z,-3.20
2022-11-20T03:17:25.756Z,-3.30
2022-11-20T03:19:13.234Z,-3.40
2022-11-20T03:21:00.648Z,-3.50
2022-11-20T03:22:47.897Z,-3.50
2022-11-20T03:24:34.851Z,-3.60
2022-11-20T03:26:25.346Z,-3.70
2022-11-20T03:28:12.356Z,-3.70
2022-11-20T03:29:59.399Z,-3.80
2022-11-20T03:31:46.745Z,-3.80
2022-11-20T03:33:33.753Z,-3.90
2022-11-20T03:35:21.059Z,-3.90
2022-11-20T03:37:08.310Z,-3.90
2022-11-20T03:38:57.026Z,-4.00
2022-11-20T03:40:44.098Z,-4.00
2022-11-20T03:42:46.428Z,-4.00
2022-11-20T03:44:33.451Z,-4.10
2022-11-20T03:46:20.948Z,-4.20
2022-11-20T03:48:08.222Z,-4.20
2022-11-20T03:49:55.213Z,-4.20
2022-11-20T03:51:42.321Z,-4.30
2022-11-20T03:53:29.572Z,-4.30
2022-11-20T03:55:16.771Z,-4.30
2022-11-20T03:57:03.769Z,-4.30
2022-11-20T03:58:51.788Z,-4.40
2022-11-20T04:00:38.787Z,-4.40
2022-11-20T04:02:25.947Z,-4.40
2022-11-20T04:04:13.221Z,-4.40
2022-11-20T04:06:09.465Z,-4.40
2022-11-20T04:07:56.477Z,-4.50
2022-11-20T04:09:43.753Z,-4.50
2022-11-20T04:11:33.361Z,-4.50
2022-11-20T04:13:20.344Z,-4.50
2022-11-20T04:15:08.034Z,-4.50
2022-11-20T04:16:55.066Z,-4.60
2022-11-20T04:18:42.079Z,-4.60
2022-11-20T04:20:29.346Z,-4.60
2022-11-20T04:22:16.489Z,-4.60
2022-11-20T04:24:03.892Z,-4.70
2022-11-20T04:25:51.141Z,-4.70
2022-11-20T04:27:38.267Z,-4.70
2022-11-20T04:29:25.256Z,-4.70
2022-11-20T04:31:23.112Z,-4.70
2022-11-20T04:33:10.183Z,-4.70
2022-11-20T04:34:57.173Z,-4.80
2022-11-20T04:36:44.512Z,-4.80
2022-11-20T04:38:31.633Z,-4.80
2022-11-20T04:40:18.621Z,-4.80
2022-11-20T04:42:24.540Z,-4.80
2022-11-20T04:44:11.732Z,-4.90
2022-11-20T04:45:59.627Z,-4.90
2022-11-20T04:47:46.954Z,-4.90
2022-11-20T04:49:35.348Z,-4.90
2022-11-20T04:51:22.706Z,-5.00
2022-11-20T04:53:09.986Z,-4.90
2022-11-20T04:54:57.474Z,-4.90
2022-11-20T04:56:44.884Z,-4.90
2022-11-20T04:58:32.723Z,-4.90
2022-11-20T05:00:19.981Z,-4.90
2022-11-20T05:02:07.100Z,-4.90
2022-11-20T05:03:54.561Z,-4.90
2022-11-20T05:05:41.601Z,-4.90
2022-11-20T05:07:28.735Z,-4.90
2022-11-20T05:09:16.013Z,-4.90
2022-11-20T05:11:11.870Z,-4.90
2022-11-20T05:12:58.945Z,-4.90
2022-11-20T05:14:46.375Z,-4.90
2022-11-20T05:16:35.665Z,-4.90
2022-11-20T05:18:23.659Z,-4.90
2022-11-20T05:20:11.865Z,-5.00
2022-11-20T05:21:58.847Z,-5.00
2022-11-20T05:23:47.020Z,-5.10
2022-11-20T05:25:34.336Z,-5.10
2022-11-20T05:27:21.395Z,-5.10
2022-11-20T05:29:11.412Z,-5.20
2022-11-20T05:31:09.791Z,-5.20
2022-11-20T05:32:56.883Z,-5.20
2022-11-20T05:34:43.871Z,-5.20
2022-11-20T05:36:31.453Z,-5.30
2022-11-20T05:38:18.467Z,-5.30
2022-11-20T05:40:06.094Z,-5.30
2022-11-20T05:42:13.261Z,-5.30
2022-11-20T05:44:00.428Z,-5.30
2022-11-20T05:45:56.662Z,-5.40
2022-11-20T05:47:44.558Z,-5.40
2022-11-20T05:49:31.866Z,-5.40
2022-11-20T05:51:20.130Z,-5.40
2022-11-20T05:53:07.496Z,-5.40
2022-11-20T05:54:54.752Z,-5.40
2022-11-20T05:56:41.977Z,-5.40
2022-11-20T05:58:30.313Z,-5.50
2022-11-20T06:00:17.384Z,-5.40
2022-11-20T06:02:04.568Z,-5.50
2022-11-20T06:03:55.163Z,-5.50
2022-11-20T06:05:42.591Z,-5.50
2022-11-20T06:07:29.691Z,-5.40
2022-11-20T06:09:17.104Z,-5.40
2022-11-20T06:11:08.869Z,-5.40
2022-11-20T06:12:59.140Z,-5.40
2022-11-20T06:14:46.453Z,-5.40
2022-11-20T06:16:33.570Z,-5.40
2022-11-20T06:18:21.101Z,-5.40
2022-11-20T06:20:08.730Z,-5.40
2022-11-20T06:21:55.886Z,-5.50
2022-11-20T06:23:43.631Z,-5.40
2022-11-20T06:25:31.021Z,-5.40
2022-11-20T06:27:18.166Z,-5.40
2022-11-20T06:29:05.197Z,-5.50
2022-11-20T06:30:52.616Z,-5.50
2022-11-20T06:32:39.611Z,-5.40
2022-11-20T06:34:26.902Z,-5.40
2022-11-20T06:36:15.695Z,-5.40
2022-11-20T06:38:02.905Z,-5.30
2022-11-20T06:39:50.017Z,-5.30
2022-11-20T06:41:37.529Z,-5.20
2022-11-20T06:43:25.572Z,-5.20
2022-11-20T06:45:12.606Z,-5.20
2022-11-20T06:47:00.144Z,-5.10
2022-11-20T06:48:48.307Z,-5.00
2022-11-20T06:50:35.363Z,-5.00
2022-11-20T06:52:22.923Z,-5.00
2022-11-20T06:54:10.128Z,-5.00
2022-11-20T06:55:58.714Z,-4.90
2022-11-20T06:57:46.014Z,-4.90
2022-11-20T06:59:33.270Z,-4.90
2022-11-20T07:01:20.442Z,-4.90
2022-11-20T07:03:09.787Z,-4.80
2022-11-20T07:04:56.829Z,-4.80
2022-11-20T07:06:43.875Z,-4.70
2022-11-20T07:08:31.324Z,-4.60
2022-11-20T07:10:18.811Z,-4.50
2022-11-20T07:12:06.252Z,-4.40
2022-11-20T07:13:54.840Z,-4.40
2022-11-20T07:15:42.092Z,-4.30
2022-11-20T07:17:29.207Z,-4.20
2022-11-20T07:19:16.714Z,-4.10
2022-11-20T07:21:06.193Z,-4.00
2022-11-20T07:22:57.900Z,-3.80
2022-11-20T07:24:46.242Z,-3.70
2022-11-20T07:26:33.392Z,-3.50
2022-11-20T07:28:20.553Z,-3.40
2022-11-20T07:30:08.228Z,-3.30
2022-11-20T07:31:57.227Z,-3.10
2022-11-20T07:33:44.242Z,-3.00
2022-11-20T07:35:31.650Z,-2.90
2022-11-20T07:37:19.196Z,-2.80
2022-11-20T07:39:06.543Z,-2.80
2022-11-20T07:41:02.505Z,-2.70
2022-11-20T07:42:54.596Z,-2.70
2022-11-20T07:44:41.865Z,-2.60
2022-11-20T07:46:29.363Z,-2.50
2022-11-20T07:48:16.629Z,-2.40
2022-11-20T07:50:03.935Z,-2.40
2022-11-20T07:51:52.315Z,-2.30
2022-11-20T07:53:39.447Z,-2.20
2022-11-20T07:55:26.655Z,-2.20
2022-11-20T07:57:14.211Z,-2.20
2022-11-20T07:59:01.534Z,-2.10
2022-11-20T08:00:48.665Z,-2.00
2022-11-20T08:02:40.003Z,-2.00
2022-11-20T08:04:27.328Z,-2.00
2022-11-20T08:06:15.785Z,-1.90
2022-11-20T08:08:03.183Z,-1.90
2022-11-20T08:09:50.401Z,-1.80
2022-11-20T08:11:56.138Z,-1.80
2022-11-20T08:14:01.949Z,-1.70
2022-11-20T08:15:53.793Z,-1.70
2022-11-20T08:17:40.827Z,-1.70
2022-11-20T08:19:29.216Z,-1.60
2022-11-20T08:21:16.460Z,-1.60
2022-11-20T08:23:06.646Z,-1.60
2022-11-20T08:24:54.113Z,-1.60
2022-11-20T08:26:42.214Z,-1.60
2022-11-20T08:28:29.438Z,-1.60
2022-11-20T08:30:16.735Z,-1.50
2022-11-20T08:32:04.198Z,-1.50
2022-11-20T08:33:59.385Z,-1.40
2022-11-20T08:35:46.896Z,-1.40
2022-11-20T08:37:34.021Z,-1.30
2022-11-20T08:39:21.392Z,-1.30
2022-11-20T08:41:28.051Z,-1.20
2022-11-20T08:43:15.206Z,-1.20
2022-11-20T08:45:02.759Z,-1.10
2022-11-20T08:46:50.310Z,-1.00
2022-11-20T08:48:37.526Z,-1.00
2022-11-20T08:50:24.718Z,-0.90
2022-11-20T08:52:12.180Z,-0.90
2022-11-20T08:53:59.478Z,-0.80
2022-11-20T08:55:46.484Z,-0.70
2022-11-20T08:57:34.720Z,-0.70
2022-11-20T09:00:04.382Z,-0.60
2022-11-20T09:01:30.389Z,-0.60
2022-11-20T09:03:17.744Z,-0.30
2022-11-20T09:05:05.349Z,-0.20
2022-11-20T09:06:53.057Z,-0.20
2022-11-20T09:08:40.529Z,-0.20
2022-11-20T09:10:28.849Z,-0.20
2022-11-20T09:12:15.980Z,-0.30
2022-11-20T09:14:03.863Z,-0.30
2022-11-20T09:15:56.358Z,-0.30
2022-11-20T09:17:43.446Z,-0.20
2022-11-20T09:19:38.016Z,-0.20
2022-11-20T09:21:25.710Z,-0.20
2022-11-20T09:23:12.773Z,-0.20
2022-11-20T09:25:00.335Z,-0.10
2022-11-20T09:26:47.488Z,-0.10
2022-11-20T09:28:34.596Z,-0.10
2022-11-20T09:30:21.872Z,-0.10
2022-11-20T09:32:09.125Z,-0.10
2022-11-20T09:33:56.337Z,-0.10
2022-11-20T09:35:45.113Z,-0.10
2022-11-20T09:37:35.696Z,0.00
2022-11-20T09:39:24.045Z,0.00
2022-11-20T09:41:20.229Z,0.00
2022-11-20T09:43:22.532Z,0.10
2022-11-20T09:45:36.981Z,0.10
2022-11-20T09:48:00.193Z,0.10
2022-11-20T09:50:23.685Z,0.20
2022-11-20T09:52:30.867Z,0.20
2022-11-20T09:54:19.699Z,0.30
2022-11-20T09:56:11.265Z,0.30
2022-11-20T09:58:00.406Z,0.40
2022-11-20T09:59:53.604Z,0.40
2022-11-20T10:01:41.974Z,0.50
2022-11-20T10:03:47.016Z,0.50
2022-11-20T10:05:48.129Z,0.50
2022-11-20T10:08:10.726Z,0.50
2022-11-20T10:09:58.331Z,0.50
2022-11-20T10:11:49.432Z,0.50
2022-11-20T10:13:36.475Z,0.50
2022-11-20T10:15:30.000Z,0.50
2022-11-20T10:17:36.386Z,0.50
2022-11-20T10:19:29.567Z,0.50
2022-11-20T10:21:38.149Z,0.50
2022-11-20T10:23:53.491Z,0.60
2022-11-20T10:25:57.437Z,0.60
2022-11-20T10:28:03.718Z,0.70
2022-11-20T10:30:11.861Z,0.70
2022-11-20T10:32:04.075Z,0.70
2022-11-20T10:34:11.575Z,0.70
2022-11-20T10:36:10.328Z,0.80
2022-11-20T10:38:01.685Z,0.80
2022-11-20T10:40:19.658Z,0.80
2022-11-20T10:42:12.839Z,1.00
2022-11-20T10:44:09.753Z,1.00
2022-11-20T10:46:23.703Z,1.00
2022-11-20T10:48:17.986Z,1.00
2022-11-20T10:50:11.263Z,1.00
2022-11-20T10:52:35.468Z,1.00
2022-11-20T10:54:38.938Z,1.00
2022-11-20T10:56:49.962Z,1.00
2022-11-20T10:58:53.650Z,1.00
2022-11-20T11:00:41.365Z,1.10
2022-11-20T11:02:50.925Z,1.10
2022-11-20T11:04:59.691Z,1.00
2022-11-20T11:06:50.085Z,1.10
2022-11-20T11:08:41.414Z,1.10
2022-11-20T11:10:42.470Z,1.20
2022-11-20T11:12:30.356Z,1.10
2022-11-20T11:14:17.797Z,1.10
2022-11-20T11:16:05.333Z,1.10
2022-11-20T11:17:52.700Z,1.10
2022-11-20T11:19:39.854Z,1.10
2022-11-20T11:21:28.084Z,1.20
2022-11-20T11:23:38.878Z,1.20
2022-11-20T11:25:35.421Z,1.10
2022-11-20T11:27:22.814Z,1.10
2022-11-20T11:29:19.334Z,1.10
2022-11-20T11:31:06.728Z,1.10
2022-11-20T11:33:11.438Z,1.20
2022-11-20T11:35:07.774Z,1.20
2022-11-20T11:36:59.714Z,1.20
2022-11-20T11:38:51.725Z,1.20
2022-11-20T11:40:41.222Z,1.30
2022-11-20T11:42:30.077Z,1.30
2022-11-20T11:44:39.663Z,1.40
2022-11-20T11:46:34.892Z,1.50
2022-11-20T11:48:22.150Z,1.70
2022-11-20T11:50:19.106Z,1.70
2022-11-20T11:52:18.122Z,1.80
2022-11-20T11:54:18.978Z,1.80
2022-11-20T11:56:14.458Z,1.70
2022-11-20T11:58:17.428Z,1.70
2022-11-20T12:00:23.035Z,1.70
2022-11-20T12:02:45.690Z,1.60
2022-11-20T12:04:47.616Z,1.60
2022-11-20T12:06:37.863Z,1.60
2022-11-20T12:08:46.749Z,1.60
2022-11-20T12:10:35.860Z,1.60
2022-11-20T12:12:40.167Z,1.50
2022-11-20T12:14:36.472Z,1.50
2022-11-20T12:16:24.244Z,1.50
2022-11-20T12:18:17.000Z,1.50
2022-11-20T12:20:06.864Z,1.40
2022-11-20T12:22:02.624Z,1.50
2022-11-20T12:24:09.134Z,1.50
2022-11-20T12:26:01.966Z,1.40
2022-11-20T12:28:31.185Z,1.50
2022-11-20T12:30:21.002Z,1.50
2022-11-20T12:32:34.452Z,1.40
2022-11-20T12:34:46.818Z,1.40
2022-11-20T12:37:12.227Z,1.40
2022-11-20T12:39:05.376Z,1.40
2022-11-20T12:41:11.466Z,1.40
2022-11-20T12:43:41.667Z,1.40
2022-11-20T12:45:53.663Z,1.40
2022-11-20T12:47:53.322Z,1.30
2022-11-20T12:49:54.430Z,1.30
2022-11-20T12:52:21.611Z,1.40
2022-11-20T12:54:36.139Z,1.40
2022-11-20T12:56:35.975Z,1.30
2022-11-20T12:58:50.231Z,1.30
2022-11-20T13:00:40.520Z,1.20
2022-11-20T13:02:36.845Z,1.20
2022-11-20T13:05:17.387Z,1.20
2022-11-20T13:07:15.705Z,1.20
2022-11-20T13:09:04.048Z,1.20
2022-11-20T13:10:56.962Z,1.20
2022-11-20T13:12:58.653Z,1.20
2022-11-20T13:15:03.508Z,1.10
2022-11-20T13:17:27.503Z,1.10
2022-11-20T13:19:17.665Z,1.10
2022-11-20T13:21:36.757Z,1.10
2022-11-20T13:23:28.821Z,1.10
2022-11-20T13:25:29.735Z,1.00
2022-11-20T13:27:19.361Z,1.00
2022-11-20T13:29:26.725Z,1.00
2022-11-20T13:31:47.832Z,1.00
2022-11-20T13:33:38.860Z,0.90
2022-11-20T13:35:38.487Z,0.90
2022-11-20T13:37:38.058Z,0.80
2022-11-20T13:39:31.705Z,0.80
2022-11-20T13:41:36.303Z,0.80
2022-11-20T13:43:42.345Z,0.80
2022-11-20T13:45:32.669Z,0.80
2022-11-20T13:47:26.347Z,0.70
2022-11-20T13:49:32.843Z,0.70
2022-11-20T13:51:50.024Z,0.70
2022-11-20T13:53:52.210Z,0.70
2022-11-20T13:55:58.576Z,0.70
2022-11-20T13:58:03.803Z,0.60
2022-11-20T14:00:06.735Z,0.60
2022-11-20T14:01:58.239Z,0.50
2022-11-20T14:05:57.447Z,0.40
2022-11-20T14:07:45.261Z,0.40
2022-11-20T14:09:35.392Z,0.40
2022-11-20T14:11:28.246Z,0.30
2022-11-20T14:13:21.997Z,0.30
2022-11-20T14:15:34.121Z,0.20
2022-11-20T14:17:21.557Z,0.20
2022-11-20T14:19:29.344Z,0.10
2022-11-20T14:21:28.206Z,0.10
2022-11-20T14:23:30.339Z,0.00
2022-11-20T14:25:24.447Z,0.00
2022-11-20T14:27:22.480Z,-0.10
2022-11-20T14:29:18.777Z,-0.20
2022-11-20T14:31:27.123Z,-0.20
2022-11-20T14:33:17.839Z,-0.20
2022-11-20T14:35:15.138Z,-0.30
2022-11-20T14:37:06.657Z,-0.30
2022-11-20T14:38:55.735Z,-0.30
2022-11-20T14:40:44.364Z,-0.40
2022-11-20T14:42:35.102Z,-0.40
2022-11-20T14:44:27.641Z,-0.50
2022-11-20T14:46:15.739Z,-0.50
2022-11-20T14:48:03.236Z,-0.50
2022-11-20T14:49:52.973Z,-0.60
2022-11-20T14:51:44.117Z,-0.60
2022-11-20T14:53:31.650Z,-0.70
2022-11-20T14:55:30.923Z,-0.70
2022-11-20T14:57:28.044Z,-0.80
2022-11-20T14:59:25.340Z,-0.80
2022-11-20T15:01:26.813Z,-0.90
2022-11-20T15:03:17.841Z,-1.00
2022-11-20T15:05:05.447Z,-1.00
2022-11-20T15:06:59.431Z,-1.10
2022-11-20T15:08:53.679Z,-1.10
2022-11-20T15:10:48.397Z,-1.20
2022-11-20T15:12:39.676Z,-1.20
2022-11-20T15:14:29.294Z,-1.20
2022-11-20T15:16:22.093Z,-1.30
2022-11-20T15:18:21.975Z,-1.30
2022-11-20T15:20:17.640Z,-1.30
2022-11-20T15:22:10.728Z,-1.40
2022-11-20T15:23:59.400Z,-1.40
2022-11-20T15:25:47.569Z,-1.50
2022-11-20T15:27:34.731Z,-1.50
2022-11-20T15:29:24.393Z,-1.50
2022-11-20T15:31:16.877Z,-1.50
2022-11-20T15:33:04.049Z,-1.60
2022-11-20T15:34:51.728Z,-1.60
2022-11-20T15:36:39.094Z,-1.60
2022-11-20T15:38:26.344Z,-1.60
2022-11-20T15:40:14.258Z,-1.60
2022-11-20T15:42:01.621Z,-1.60
2022-11-20T15:43:52.662Z,-1.60
2022-11-20T15:45:49.160Z,-1.60
2022-11-20T15:47:36.979Z,-1.70
2022-11-20T15:49:24.847Z,-1.70
2022-11-20T15:51:12.377Z,-1.70
2022-11-20T15:52:59.816Z,-1.80
2022-11-20T15:54:47.020Z,-1.80
2022-11-20T15:56:34.632Z,-1.80
2022-11-20T15:58:23.924Z,-1.90
2022-11-20T16:00:13.106Z,-1.90
2022-11-20T16:02:00.693Z,-1.90
2022-11-20T16:03:48.070Z,-1.90
2022-11-20T16:05:35.265Z,-2.00
2022-11-20T16:07:22.868Z,-2.10
2022-11-20T16:09:10.681Z,-2.10
2022-11-20T16:10:58.475Z,-2.20
2022-11-20T16:13:05.505Z,-2.20
2022-11-20T16:15:13.749Z,-2.30
2022-11-20T16:17:01.242Z,-2.30
2022-11-20T16:18:49.119Z,-2.30
2022-11-20T16:20:36.263Z,-2.30
2022-11-20T16:22:24.275Z,-2.30
2022-11-20T16:24:14.972Z,-2.40
2022-11-20T16:26:13.917Z,-2.40
2022-11-20T16:28:02.038Z,-2.40
2022-11-20T16:29:49.939Z,-2.40
2022-11-20T16:31:37.198Z,-2.50
2022-11-20T16:33:27.299Z,-2.50
2022-11-20T16:35:14.763Z,-2.50
2022-11-20T16:37:01.960Z,-2.50
2022-11-20T16:38:53.704Z,-2.40
2022-11-20T16:40:41.954Z,-2.50
2022-11-20T16:42:29.074Z,-2.50
2022-11-20T16:44:16.359Z,-2.50
2022-11-20T16:46:05.743Z,-2.60
2022-11-20T16:47:52.992Z,-2.60
2022-11-20T16:49:42.892Z,-2.50
2022-11-20T16:51:32.733Z,-2.50
2022-11-20T16:53:21.433Z,-2.50
2022-11-20T16:55:09.237Z,-2.60
2022-11-20T16:56:56.954Z,-2.60
2022-11-20T16:58:45.791Z,-2.60
2022-11-20T17:00:36.023Z,-2.60
2022-11-20T17:02:23.620Z,-2.60
2022-11-20T17:04:11.040Z,-2.70
2022-11-20T17:05:58.347Z,-2.70
2022-11-20T17:07:46.147Z,-2.70
2022-11-20T17:09:33.770Z,-2.70
2022-11-20T17:11:24.827Z,-2.70
2022-11-20T17:13:12.724Z,-2.80
2022-11-20T17:15:00.931Z,-2.80
2022-11-20T17:16:48.054Z,-2.90
2022-11-20T17:18:35.591Z,-2.90
2022-11-20T17:20:22.977Z,-2.90
2022-11-20T17:22:10.148Z,-3.00
2022-11-20T17:24:01.887Z,-3.00
2022-11-20T17:25:49.434Z,-3.00
2022-11-20T17:27:36.912Z,-3.00
2022-11-20T17:29:24.926Z,-3.00
2022-11-20T17:31:15.276Z,-3.00
2022-11-20T17:33:02.953Z,-3.10
2022-11-20T17:34:52.114Z,-3.10
2022-11-20T17:36:44.995Z,-3.20
2022-11-20T17:38:33.822Z,-3.20
2022-11-20T17:40:26.972Z,-3.30
2022-11-20T17:42:26.674Z,-3.30
2022-11-20T17:44:15.175Z,-3.20
2022-11-20T17:46:09.184Z,-3.30
2022-11-20T17:47:56.314Z,-3.30
2022-11-20T17:49:43.485Z,-3.30
2022-11-20T17:51:32.896Z,-3.30
2022-11-20T17:53:21.421Z,-3.40
2022-11-20T17:55:09.627Z,-3.40
2022-11-20T17:57:15.684Z,-3.40
2022-11-20T17:59:11.287Z,-3.40
2022-11-20T18:01:06.023Z,-3.40
2022-11-20T18:02:53.586Z,-3.50
2022-11-20T18:04:40.785Z,-3.50
2022-11-20T18:06:29.557Z,-3.40
2022-11-20T18:08:17.524Z,-3.50
2022-11-20T18:10:05.886Z,-3.50
2022-11-20T18:11:53.923Z,-3.50
2022-11-20T18:14:00.891Z,-3.50
2022-11-20T18:15:48.078Z,-3.50
2022-11-20T18:17:36.431Z,-3.60
2022-11-20T18:19:32.395Z,-3.60
2022-11-20T18:21:20.112Z,-3.60
2022-11-20T18:23:07.670Z,-3.60
2022-11-20T18:24:55.130Z,-3.60
2022-11-20T18:26:44.722Z,-3.60
2022-11-20T18:28:31.920Z,-3.70
2022-11-20T18:30:21.922Z,-3.60
2022-11-20T18:32:09.015Z,-3.60
2022-11-20T18:33:56.648Z,-3.60
2022-11-20T18:35:44.826Z,-3.60
2022-11-20T18:37:32.480Z,-3.60
2022-11-20T18:39:19.574Z,-3.50
2022-11-20T18:41:29.670Z,-3.50
2022-11-20T18:43:38.739Z,-3.50
2022-11-20T18:45:25.860Z,-3.50
2022-11-20T18:47:20.605Z,-3.40
2022-11-20T18:49:08.792Z,-3.40
2022-11-20T18:50:56.105Z,-3.30
2022-11-20T18:52:50.029Z,-3.30
2022-11-20T18:54:38.784Z,-3.20
2022-11-20T18:56:26.635Z,-3.20
2022-11-20T18:58:14.054Z,-3.20
2022-11-20T19:00:08.016Z,-3.20
2022-11-20T19:01:55.808Z,-3.20
2022-11-20T19:03:43.989Z,-3.20
2022-11-20T19:05:31.057Z,-3.20
2022-11-20T19:07:18.543Z,-3.20
2022-11-20T19:09:09.355Z,-3.10
2022-11-20T19:11:06.561Z,-3.10
2022-11-20T19:12:58.589Z,-3.00
2022-11-20T19:14:50.756Z,-3.00
2022-11-20T19:16:43.247Z,-3.00
2022-11-20T19:18:31.738Z,-2.90
2022-11-20T19:20:21.959Z,-2.90
2022-11-20T19:22:10.700Z,-2.90
2022-11-20T19:24:02.424Z,-2.80
2022-11-20T19:25:51.038Z,-2.80
2022-11-20T19:27:38.299Z,-2.70
2022-11-20T19:29:27.289Z,-2.60
2022-11-20T19:31:24.435Z,-2.60
2022-11-20T19:33:12.627Z,-2.60
2022-11-20T19:35:00.218Z,-2.60
2022-11-20T19:36:48.393Z,-2.60
2022-11-20T19:38:35.860Z,-2.60
2022-11-20T19:40:22.992Z,-2.60
2022-11-20T19:42:12.584Z,-2.50
2022-11-20T19:44:09.611Z,-2.50
2022-11-20T19:45:56.868Z,-2.50
2022-11-20T19:49:51.895Z,-2.60
2022-11-20T19:51:44.233Z,-2.60
2022-11-20T19:53:31.924Z,-2.70
2022-11-20T19:55:20.483Z,-2.70
2022-11-20T19:57:07.755Z,-2.80
2022-11-20T19:58:56.838Z,-2.90
2022-11-20T20:00:43.884Z,-2.90
2022-11-20T20:02:33.434Z,-3.00
2022-11-20T20:04:21.750Z,-3.00
2022-11-20T20:06:16.780Z,-3.10
2022-11-20T20:08:03.997Z,-3.10
2022-11-20T20:09:51.839Z,-3.20
2022-11-20T20:11:40.118Z,-3.20
2022-11-20T20:13:28.139Z,-3.20
2022-11-20T20:15:15.926Z,-3.30
2022-11-20T20:17:03.551Z,-3.40
2022-11-20T20:18:57.980Z,-3.40
2022-11-20T20:20:45.808Z,-3.40
2022-11-20T20:22:32.929Z,-3.50
2022-11-20T20:24:20.229Z,-3.50
2022-11-20T20:28:22.954Z,-3.60
2022-11-20T20:30:12.156Z,-3.60
2022-11-20T20:31:59.904Z,-3.70
2022-11-20T20:33:47.393Z,-3.70
2022-11-20T20:35:34.820Z,-3.70
2022-11-20T20:37:22.684Z,-3.60
2022-11-20T20:39:11.443Z,-3.60
2022-11-20T20:40:58.547Z,-3.50
2022-11-20T20:42:45.916Z,-3.50
2022-11-20T20:44:51.459Z,-3.50
2022-11-20T20:46:39.617Z,-3.50
2022-11-20T20:48:27.916Z,-3.50
2022-11-20T20:50:15.560Z,-3.50
2022-11-20T20:52:02.628Z,-3.50
2022-11-20T20:53:50.958Z,-3.60
2022-11-20T20:55:38.299Z,-3.70
2022-11-20T20:57:25.809Z,-3.70
2022-11-20T20:59:13.160Z,-3.70
2022-11-20T21:01:12.640Z,-3.80
2022-11-20T21:02:59.904Z,-3.80
2022-11-20T21:04:47.751Z,-3.90
2022-11-20T21:06:34.847Z,-4.00
2022-11-20T21:08:21.894Z,-4.00
2022-11-20T21:10:09.212Z,-4.10
2022-11-20T21:11:56.876Z,-4.10
2022-11-20T21:13:46.049Z,-4.10
2022-11-20T21:15:33.450Z,-4.20
2022-11-20T21:17:20.736Z,-4.20
2022-11-20T21:19:08.327Z,-4.30
2022-11-20T21:21:14.943Z,-4.30
2022-11-20T21:23:08.797Z,-4.30
2022-11-20T21:24:55.777Z,-4.20
2022-11-20T21:26:43.486Z,-4.10
2022-11-20T21:28:35.628Z,-4.00
2022-11-20T21:30:22.663Z,-4.00
2022-11-20T21:32:09.908Z,-4.00
2022-11-20T21:33:58.307Z,-4.00
2022-11-20T21:35:45.253Z,-4.00
2022-11-20T21:37:35.007Z,-3.90
2022-11-20T21:39:25.518Z,-3.90
2022-11-20T21:41:14.083Z,-3.90
2022-11-20T21:43:01.608Z,-3.90
2022-11-20T21:44:48.742Z,-3.90
2022-11-20T21:46:39.275Z,-4.00
2022-11-20T21:48:31.210Z,-3.90
2022-11-20T21:50:19.195Z,-3.90
2022-11-20T21:52:06.362Z,-3.90
2022-11-20T21:53:55.474Z,-3.90
2022-11-20T21:55:42.523Z,-3.90
2022-11-20T21:57:29.619Z,-4.00
2022-11-20T21:59:17.120Z,-3.90
2022-11-20T22:01:17.982Z,-3.90
2022-11-20T22:03:05.104Z,-3.90
2022-11-20T22:04:52.474Z,-3.90
2022-11-20T22:06:39.704Z,-4.00
2022-11-20T22:08:27.518Z,-4.00
2022-11-20T22:10:18.472Z,-4.00
2022-11-20T22:12:06.451Z,-4.00
2022-11-20T22:14:11.897Z,-4.10
2022-11-20T22:16:01.889Z,-4.10
2022-11-20T22:18:07.831Z,-4.10
2022-11-20T22:19:54.867Z,-4.10
2022-11-20T22:21:42.628Z,-4.10
2022-11-20T22:23:30.279Z,-4.10
2022-11-20T22:25:17.455Z,-4.20
2022-11-20T22:27:04.870Z,-4.20
2022-11-20T22:28:55.714Z,-4.20
2022-11-20T22:30:43.276Z,-4.10
2022-11-20T22:32:30.518Z,-4.10
2022-11-20T22:34:17.487Z,-4.10
2022-11-20T22:36:10.700Z,-4.10
2022-11-20T22:37:57.949Z,-4.10
2022-11-20T22:39:45.171Z,-4.20
2022-11-20T22:41:33.062Z,-4.10
2022-11-20T22:43:20.393Z,-4.20
2022-11-20T22:45:08.697Z,-4.20
2022-11-20T22:46:55.762Z,-4.10
2022-11-20T22:49:03.483Z,-4.20
2022-11-20T22:50:50.617Z,-4.20
2022-11-20T22:52:37.624Z,-4.20
2022-11-20T22:54:25.261Z,-4.30
2022-11-20T22:56:13.557Z,-4.30
2022-11-20T22:58:00.594Z,-4.40
2022-11-20T22:59:47.938Z,-4.40
2022-11-20T23:01:36.892Z,-4.40
2022-11-20T23:03:23.999Z,-4.40
2022-11-20T23:05:11.438Z,-4.30
2022-11-20T23:06:58.604Z,-4.40
2022-11-20T23:08:46.393Z,-4.40
2022-11-20T23:10:33.565Z,-4.30
2022-11-20T23:12:20.572Z,-4.30
2022-11-20T23:14:15.552Z,-4.30
2022-11-20T23:16:06.218Z,-4.30
2022-11-20T23:17:54.700Z,-4.30
2022-11-20T23:19:41.680Z,-4.30
2022-11-20T23:21:29.338Z,-4.30
2022-11-20T23:23:16.577Z,-4.30
2022-11-20T23:25:03.716Z,-4.30
2022-11-20T23:26:51.224Z,-4.30
2022-11-20T23:28:38.796Z,-4.30
2022-11-20T23:30:25.852Z,-4.30
2022-11-20T23:32:13.206Z,-4.30
2022-11-20T23:34:00.700Z,-4.30
2022-11-20T23:35:47.934Z,-4.30
2022-11-20T23:37:35.320Z,-4.40
2022-11-20T23:39:22.318Z,-4.40
2022-11-20T23:41:12.462Z,-4.40
2022-11-20T23:43:15.147Z,-4.40
2022-11-20T23:45:02.289Z,-4.40
2022-11-20T23:46:49.321Z,-4.50
2022-11-20T23:48:38.194Z,-4.50
2022-11-20T23:50:25.218Z,-4.50
2022-11-20T23:52:12.238Z,-4.50
2022-11-20T23:54:04.532Z,-4.50
2022-11-20T23:55:57.200Z,-4.50
2022-11-20T23:57:44.215Z,-4.50
2022-11-20T23:59:31.510Z,-4.60
